createdAt,value
2023-03-28T00:01:05.698Z,96611.69
2023-03-28T00:03:39.469Z,96621.59
2023-03-28T00:06:11.088Z,96610.84
2023-03-28T00:08:41.009Z,96631.50
2023-03-28T00:11:11.633Z,96639.63
2023-03-28T00:13:40.076Z,96639.50
2023-03-28T00:16:12.961Z,96642.00
2023-03-28T00:18:42.599Z,96640.59
2023-03-28T00:21:23.605Z,96630.97
2023-03-28T00:23:53.636Z,96644.97
2023-03-28T00:26:24.809Z,96646.59
2023-03-28T00:28:53.031Z,96649.16
2023-03-28T00:31:22.804Z,96641.78
2023-03-28T00:33:50.734Z,96640.53
2023-03-28T00:36:23.116Z,96655.06
2023-03-28T00:38:52.402Z,96651.84
2023-03-28T00:41:21.970Z,96643.81
2023-03-28T00:43:52.592Z,96650.41
2023-03-28T00:46:27.526Z,96647.66
2023-03-28T00:49:02.817Z,96646.06
2023-03-28T00:51:37.089Z,96652.78
2023-03-28T00:54:12.035Z,96646.13
2023-03-28T00:56:45.934Z,96663.66
2023-03-28T00:59:19.138Z,96666.16
2023-03-28T01:01:48.797Z,96649.72
2023-03-28T01:04:22.220Z,96665.03
2023-03-28T01:06:55.000Z,96656.41
2023-03-28T01:09:25.027Z,96659.53
2023-03-28T01:11:56.554Z,96681.47
2023-03-28T01:14:27.910Z,96674.44
2023-03-28T01:16:57.789Z,96678.41
2023-03-28T01:19:43.770Z,96678.91
2023-03-28T01:22:57.250Z,96672.59
2023-03-28T01:26:08.794Z,96683.66
2023-03-28T01:29:08.840Z,96678.53
2023-03-28T01:31:58.478Z,96689.56
2023-03-28T01:34:49.684Z,96686.50
2023-03-28T01:37:34.478Z,96698.06
2023-03-28T01:40:29.431Z,96701.59
2023-03-28T01:43:15.310Z,96698.53
2023-03-28T01:45:54.432Z,96712.63
2023-03-28T01:48:35.904Z,96711.38
2023-03-28T01:51:15.951Z,96709.06
2023-03-28T01:53:53.587Z,96701.06
2023-03-28T01:56:32.384Z,96702.34
2023-03-28T01:59:09.145Z,96704.44
2023-03-28T02:01:47.581Z,96716.47
2023-03-28T02:04:21.320Z,96716.06
2023-03-28T02:06:52.857Z,96709.34
2023-03-28T02:09:26.325Z,96709.53
2023-03-28T02:12:00.283Z,96708.84
2023-03-28T02:14:35.494Z,96706.94
2023-03-28T02:17:15.891Z,96718.94
2023-03-28T02:19:50.304Z,96698.03
2023-03-28T02:22:25.484Z,96712.06
2023-03-28T02:24:54.772Z,96715.72
2023-03-28T02:27:23.866Z,96722.75
2023-03-28T02:29:54.666Z,96721.78
2023-03-28T02:32:23.830Z,96728.03
2023-03-28T02:34:56.511Z,96736.59
2023-03-28T02:37:41.330Z,96726.44
2023-03-28T02:40:29.068Z,96733.47
2023-03-28T02:43:15.419Z,96733.88
2023-03-28T02:46:08.652Z,96716.75
2023-03-28T02:48:54.245Z,96719.88
2023-03-28T02:51:34.723Z,96723.53
2023-03-28T02:54:24.122Z,96732.28
2023-03-28T02:57:03.567Z,96724.84
2023-03-28T02:59:37.189Z,96721.03
2023-03-28T03:02:05.916Z,96722.75
2023-03-28T03:04:33.736Z,96712.81
2023-03-28T03:07:02.539Z,96732.91
2023-03-28T03:09:30.453Z,96734.97
2023-03-28T03:11:59.684Z,96733.28
2023-03-28T03:14:27.521Z,96736.34
2023-03-28T03:16:55.660Z,96733.09
2023-03-28T03:19:23.509Z,96742.94
2023-03-28T03:21:51.818Z,96734.84
2023-03-28T03:24:19.649Z,96743.31
2023-03-28T03:26:47.471Z,96739.31
2023-03-28T03:29:16.878Z,96745.94
2023-03-28T03:31:44.789Z,96745.47
2023-03-28T03:34:12.696Z,96740.97
2023-03-28T03:36:40.648Z,96750.78
2023-03-28T03:39:08.606Z,96747.34
2023-03-28T03:41:36.481Z,96755.19
2023-03-28T03:44:04.649Z,96752.47
2023-03-28T03:46:33.961Z,96755.97
2023-03-28T03:49:01.930Z,96749.03
2023-03-28T03:51:29.812Z,96753.66
2023-03-28T03:53:59.507Z,96749.94
2023-03-28T03:56:27.356Z,96761.41
2023-03-28T03:58:55.563Z,96762.16
2023-03-28T04:01:54.280Z,96753.50
2023-03-28T04:04:23.698Z,96763.50
2023-03-28T04:06:51.604Z,96749.03
2023-03-28T04:09:20.612Z,96755.06
2023-03-28T04:11:48.598Z,96757.88
2023-03-28T04:14:16.610Z,96762.94
2023-03-28T04:16:44.844Z,96767.13
2023-03-28T04:19:13.856Z,96768.75
2023-03-28T04:21:43.745Z,96769.75
2023-03-28T04:24:15.646Z,96765.75
2023-03-28T04:26:45.925Z,96768.81
2023-03-28T04:29:14.200Z,96762.91
2023-03-28T04:31:49.705Z,96772.69
2023-03-28T04:34:20.099Z,96763.41
2023-03-28T04:36:49.357Z,96769.56
2023-03-28T04:39:17.260Z,96764.34
2023-03-28T04:41:46.458Z,96773.91
2023-03-28T04:44:14.404Z,96771.09
2023-03-28T04:46:42.284Z,96770.75
2023-03-28T04:49:10.804Z,96771.56
2023-03-28T04:51:38.686Z,96769.75
2023-03-28T04:54:07.925Z,96776.41
2023-03-28T04:56:36.516Z,96772.56
2023-03-28T04:59:04.408Z,96777.81
2023-03-28T05:01:33.093Z,96781.25
2023-03-28T05:04:01.289Z,96789.78
2023-03-28T05:06:29.134Z,96788.28
2023-03-28T05:08:57.734Z,96789.47
2023-03-28T05:11:26.984Z,96785.34
2023-03-28T05:13:54.878Z,96795.34
2023-03-28T05:16:22.819Z,96802.56
2023-03-28T05:18:51.371Z,96806.28
2023-03-28T05:21:19.304Z,96810.59
2023-03-28T05:23:52.000Z,96808.50
2023-03-28T05:26:23.585Z,96814.44
2023-03-28T05:28:52.820Z,96820.78
2023-03-28T05:31:20.940Z,96821.69
2023-03-28T05:33:48.874Z,96824.50
2023-03-28T05:36:16.973Z,96820.28
2023-03-28T05:38:44.806Z,96819.47
2023-03-28T05:41:12.865Z,96820.97
2023-03-28T05:43:40.744Z,96818.75
2023-03-28T05:46:10.042Z,96823.50
2023-03-28T05:48:37.964Z,96827.09
2023-03-28T05:51:06.246Z,96835.13
2023-03-28T05:53:34.053Z,96836.47
2023-03-28T05:56:01.942Z,96833.75
2023-03-28T05:58:30.106Z,96846.00
2023-03-28T06:00:58.186Z,96846.13
2023-03-28T06:03:28.081Z,96847.31
2023-03-28T06:05:56.689Z,96855.97
2023-03-28T06:08:24.599Z,96839.56
2023-03-28T06:10:52.511Z,96862.31
2023-03-28T06:13:20.688Z,96855.47
2023-03-28T06:15:48.666Z,96870.34
2023-03-28T06:18:16.575Z,96866.63
2023-03-28T06:20:45.875Z,96869.75
2023-03-28T06:23:13.874Z,96871.16
2023-03-28T06:25:41.797Z,96867.94
2023-03-28T06:28:09.671Z,96871.06
2023-03-28T06:30:39.868Z,96876.81
2023-03-28T06:33:07.921Z,96880.19
2023-03-28T06:35:36.166Z,96884.94
2023-03-28T06:38:05.574Z,96883.31
2023-03-28T06:40:33.746Z,96877.78
2023-03-28T06:43:01.603Z,96892.25
2023-03-28T06:45:29.409Z,96890.72
2023-03-28T06:47:57.336Z,96900.78
2023-03-28T06:50:25.268Z,96898.97
2023-03-28T06:52:53.279Z,96901.03
2023-03-28T06:55:23.147Z,96903.38
2023-03-28T06:57:51.075Z,96911.28
2023-03-28T07:00:19.767Z,96911.06
2023-03-28T07:02:47.832Z,96912.38
2023-03-28T07:05:15.860Z,96913.53
2023-03-28T07:10:11.792Z,96912.44
2023-03-28T07:12:41.198Z,96903.78
2023-03-28T07:15:09.883Z,96920.28
2023-03-28T07:17:38.024Z,96917.09
2023-03-28T07:20:07.004Z,96920.47
2023-03-28T07:22:34.830Z,96915.03
2023-03-28T07:25:04.066Z,96929.00
2023-03-28T07:27:32.058Z,96938.41
2023-03-28T07:30:01.637Z,96943.34
2023-03-28T07:32:35.793Z,96952.41
2023-03-28T07:35:09.405Z,96946.72
2023-03-28T07:37:37.248Z,96952.97
2023-03-28T07:40:06.292Z,96957.19
2023-03-28T07:42:34.441Z,96966.53
2023-03-28T07:45:03.794Z,96961.09
2023-03-28T07:47:31.723Z,96965.66
2023-03-28T07:49:59.633Z,96963.41
2023-03-28T07:52:28.029Z,96969.34
2023-03-28T07:54:58.363Z,96963.88
2023-03-28T07:57:26.724Z,96976.41
2023-03-28T07:59:56.172Z,96983.25
2023-03-28T08:02:25.530Z,96982.75
2023-03-28T08:04:54.457Z,96985.38
2023-03-28T08:07:22.427Z,96985.78
2023-03-28T08:09:56.311Z,96976.03
2023-03-28T08:12:25.752Z,96991.69
2023-03-28T08:14:53.592Z,96978.09
2023-03-28T08:17:21.729Z,96976.22
2023-03-28T08:19:51.048Z,96973.13
2023-03-28T08:22:18.913Z,96984.69
2023-03-28T08:24:46.985Z,96980.06
2023-03-28T08:27:15.208Z,96973.50
2023-03-28T08:29:43.063Z,96984.75
2023-03-28T08:32:11.098Z,96995.19
2023-03-28T08:34:40.558Z,96998.72
2023-03-28T08:37:09.909Z,96986.81
2023-03-28T08:39:41.078Z,96992.91
2023-03-28T08:42:34.327Z,97004.50
2023-03-28T08:45:23.333Z,97006.59
2023-03-28T08:48:08.590Z,96998.06
2023-03-28T08:50:42.720Z,97003.84
2023-03-28T08:53:23.581Z,97003.03
2023-03-28T08:55:54.477Z,96997.09
2023-03-28T08:58:25.068Z,96994.50
2023-03-28T09:00:54.087Z,96996.09
2023-03-28T09:03:25.294Z,96995.22
2023-03-28T09:06:01.208Z,96996.75
2023-03-28T09:08:54.128Z,96995.50
2023-03-28T09:11:38.802Z,97009.19
2023-03-28T09:14:25.363Z,97004.88
2023-03-28T09:17:06.643Z,97000.44
2023-03-28T09:19:49.414Z,97003.53
2023-03-28T09:22:33.950Z,96994.91
2023-03-28T09:25:22.833Z,96998.81
2023-03-28T09:28:01.065Z,96995.00
2023-03-28T09:30:33.352Z,97000.53
2023-03-28T09:33:07.321Z,97005.88
2023-03-28T09:35:35.489Z,96996.13
2023-03-28T09:38:06.806Z,97000.59
2023-03-28T09:40:37.316Z,96996.38
2023-03-28T09:43:16.256Z,97002.44
2023-03-28T09:45:58.529Z,96996.13
2023-03-28T09:48:30.241Z,96994.09
2023-03-28T09:50:59.572Z,97007.97
2023-03-28T09:53:32.927Z,97006.88
2023-03-28T09:56:07.689Z,96998.16
2023-03-28T09:58:50.489Z,97007.25
2023-03-28T10:01:34.946Z,96998.19
2023-03-28T10:04:03.070Z,97013.06
2023-03-28T10:06:32.812Z,97003.66
2023-03-28T10:09:19.744Z,97008.88
2023-03-28T10:11:55.622Z,97006.81
2023-03-28T10:14:31.850Z,97008.97
2023-03-28T10:17:04.465Z,97010.44
2023-03-28T10:19:36.347Z,97005.88
2023-03-28T10:22:09.394Z,97007.88
2023-03-28T10:24:38.807Z,97007.16
2023-03-28T10:27:18.835Z,97001.63
2023-03-28T10:29:48.536Z,97009.97
2023-03-28T10:32:26.941Z,97004.03
2023-03-28T10:35:09.892Z,97000.53
2023-03-28T10:37:37.825Z,97004.69
2023-03-28T10:40:23.435Z,97001.47
2023-03-28T10:42:52.986Z,97015.22
2023-03-28T10:45:26.983Z,96997.47
2023-03-28T10:48:00.940Z,97008.63
2023-03-28T10:50:36.816Z,97002.00
2023-03-28T10:53:25.114Z,96993.50
2023-03-28T10:56:10.836Z,96997.06
2023-03-28T10:58:48.180Z,97004.75
2023-03-28T11:01:21.174Z,96996.16
2023-03-28T11:04:13.132Z,96994.72
2023-03-28T11:06:51.553Z,96983.34
2023-03-28T11:09:27.949Z,96985.66
2023-03-28T11:12:08.392Z,96977.91
2023-03-28T11:14:53.992Z,96960.75
2023-03-28T11:17:36.549Z,96963.63
2023-03-28T11:20:30.429Z,96969.97
2023-03-28T11:23:18.929Z,96967.31
2023-03-28T11:25:56.618Z,96973.38
2023-03-28T11:28:35.790Z,96969.38
2023-03-28T11:31:06.381Z,96978.09
2023-03-28T11:33:44.463Z,96957.75
2023-03-28T11:36:18.563Z,96960.03
2023-03-28T11:38:54.495Z,96953.50
2023-03-28T11:41:27.439Z,96949.78
2023-03-28T11:44:04.125Z,96954.59
2023-03-28T11:46:38.127Z,96954.78
2023-03-28T11:49:19.177Z,96951.38
2023-03-28T11:51:56.873Z,96946.56
2023-03-28T11:54:33.424Z,96950.09
2023-03-28T11:57:07.913Z,96938.38
2023-03-28T11:59:46.410Z,96935.38
2023-03-28T12:02:35.743Z,96937.44
2023-03-28T12:05:13.515Z,96944.66
2023-03-28T12:07:49.378Z,96945.22
2023-03-28T12:10:24.676Z,96942.81
2023-03-28T12:13:02.094Z,96938.59
2023-03-28T12:15:39.322Z,96939.59
2023-03-28T12:18:17.860Z,96936.41
2023-03-28T12:20:55.967Z,96928.53
2023-03-28T12:23:37.827Z,96926.06
2023-03-28T12:26:21.359Z,96920.56
2023-03-28T12:28:55.773Z,96921.47
2023-03-28T12:31:30.583Z,96908.53
2023-03-28T12:34:13.502Z,96905.59
2023-03-28T12:36:50.802Z,96907.31
2023-03-28T12:39:35.553Z,96904.91
2023-03-28T12:42:07.453Z,96908.63
2023-03-28T12:44:45.240Z,96907.56
2023-03-28T12:47:20.720Z,96904.06
2023-03-28T12:49:57.494Z,96898.72
2023-03-28T12:52:32.170Z,96905.81
2023-03-28T12:55:02.582Z,96901.81
2023-03-28T12:57:46.706Z,96906.13
2023-03-28T13:00:28.884Z,96891.03
2023-03-28T13:03:19.658Z,96898.41
2023-03-28T13:06:00.014Z,96902.00
2023-03-28T13:08:47.745Z,96903.59
2023-03-28T13:11:29.658Z,96906.97
2023-03-28T13:14:10.051Z,96908.28
2023-03-28T13:16:49.042Z,96898.06
2023-03-28T13:19:18.722Z,96905.56
2023-03-28T13:21:53.799Z,96895.78
2023-03-28T13:24:31.726Z,96881.88
2023-03-28T13:27:01.811Z,96874.59
2023-03-28T13:29:47.165Z,96869.44
2023-03-28T13:32:17.851Z,96886.88
2023-03-28T13:34:51.394Z,96880.63
2023-03-28T13:37:23.494Z,96884.19
2023-03-28T13:39:53.375Z,96880.69
2023-03-28T13:42:30.760Z,96877.88
2023-03-28T13:45:04.212Z,96871.31
2023-03-28T13:47:41.485Z,96862.88
2023-03-28T13:50:23.477Z,96863.06
2023-03-28T13:52:52.729Z,96864.50
2023-03-28T13:55:23.460Z,96850.25
2023-03-28T13:57:52.576Z,96862.69
2023-03-28T14:00:25.471Z,96864.06
2023-03-28T14:02:55.582Z,96851.16
2023-03-28T14:05:25.799Z,96861.25
2023-03-28T14:08:02.747Z,96841.97
2023-03-28T14:10:33.585Z,96861.16
2023-03-28T14:13:05.544Z,96852.03
2023-03-28T14:15:37.539Z,96838.19
2023-03-28T14:18:06.184Z,96842.53
2023-03-28T14:20:36.293Z,96840.84
2023-03-28T14:23:06.985Z,96830.47
2023-03-28T14:25:35.503Z,96834.03
2023-03-28T14:28:09.550Z,96830.75
2023-03-28T14:30:42.757Z,96840.59
2023-03-28T14:33:21.238Z,96835.19
2023-03-28T14:36:00.051Z,96835.19
2023-03-28T14:38:33.317Z,96834.34
2023-03-28T14:41:14.342Z,96830.13
2023-03-28T14:43:42.473Z,96827.72
2023-03-28T14:46:12.007Z,96833.75
2023-03-28T14:48:43.231Z,96818.28
2023-03-28T14:51:15.036Z,96813.06
2023-03-28T14:53:47.550Z,96815.13
2023-03-28T14:56:23.130Z,96813.97
2023-03-28T14:58:55.683Z,96814.38
2023-03-28T15:01:24.709Z,96804.38
2023-03-28T15:03:59.802Z,96802.88
2023-03-28T15:06:29.274Z,96808.97
2023-03-28T15:09:04.179Z,96793.16
2023-03-28T15:11:37.111Z,96800.81
2023-03-28T15:14:13.959Z,96789.94
2023-03-28T15:16:46.621Z,96791.25
2023-03-28T15:19:24.056Z,96784.00
2023-03-28T15:21:58.282Z,96772.09
2023-03-28T15:24:30.000Z,96783.72
2023-03-28T15:27:01.525Z,96775.03
2023-03-28T15:29:36.041Z,96751.75
2023-03-28T15:32:07.115Z,96753.78
2023-03-28T15:34:45.525Z,96744.56
2023-03-28T15:37:19.592Z,96746.72
2023-03-28T15:39:52.160Z,96747.19
2023-03-28T15:42:35.811Z,96737.50
2023-03-28T15:45:28.374Z,96740.81
2023-03-28T15:47:57.791Z,96733.69
2023-03-28T15:50:31.041Z,96731.03
2023-03-28T15:53:02.007Z,96737.09
2023-03-28T15:55:32.777Z,96733.16
2023-03-28T15:58:01.349Z,96734.91
2023-03-28T16:00:44.826Z,96733.22
2023-03-28T16:03:34.501Z,96734.59
2023-03-28T16:06:26.683Z,96730.34
2023-03-28T16:09:14.024Z,96730.72
2023-03-28T16:11:44.132Z,96727.63
2023-03-28T16:14:17.224Z,96731.09
2023-03-28T16:16:45.795Z,96728.84
2023-03-28T16:19:20.322Z,96724.19
2023-03-28T16:21:49.721Z,96720.31
2023-03-28T16:24:19.659Z,96716.72
2023-03-28T16:26:49.636Z,96716.91
2023-03-28T16:29:17.841Z,96724.84
2023-03-28T16:31:46.472Z,96711.69
2023-03-28T16:34:14.414Z,96719.88
2023-03-28T16:36:42.241Z,96722.94
2023-03-28T16:39:11.696Z,96716.56
2023-03-28T16:41:39.530Z,96712.03
2023-03-28T16:44:08.771Z,96713.31
2023-03-28T16:46:36.640Z,96707.06
2023-03-28T16:49:04.647Z,96707.34
2023-03-28T16:51:32.575Z,96705.72
2023-03-28T16:54:00.739Z,96702.09
2023-03-28T16:56:30.190Z,96694.06
2023-03-28T16:58:58.121Z,96702.03
2023-03-28T17:01:27.547Z,96700.75
2023-03-28T17:03:55.754Z,96697.09
2023-03-28T17:06:23.800Z,96693.22
2023-03-28T17:08:53.365Z,96688.84
2023-03-28T17:11:23.297Z,96684.81
2023-03-28T17:13:54.516Z,96683.34
2023-03-28T17:16:23.505Z,96676.53
2023-03-28T17:18:53.751Z,96670.78
2023-03-28T17:21:21.675Z,96667.22
2023-03-28T17:23:50.950Z,96684.72
2023-03-28T17:26:19.244Z,96675.75
2023-03-28T17:28:47.239Z,96670.06
2023-03-28T17:31:18.507Z,96669.63
2023-03-28T17:33:48.448Z,96674.16
2023-03-28T17:36:22.001Z,96672.03
2023-03-28T17:38:51.907Z,96668.09
2023-03-28T17:41:23.072Z,96658.41
2023-03-28T17:43:52.262Z,96652.59
2023-03-28T17:46:21.394Z,96661.16
2023-03-28T17:48:49.993Z,96655.59
2023-03-28T17:51:19.225Z,96652.59
2023-03-28T17:53:48.533Z,96651.72
2023-03-28T17:56:17.565Z,96652.16
2023-03-28T17:58:46.589Z,96648.31
2023-03-28T18:01:17.262Z,96651.66
2023-03-28T18:03:46.874Z,96641.91
2023-03-28T18:06:15.366Z,96643.69
2023-03-28T18:08:45.312Z,96644.81
2023-03-28T18:11:16.418Z,96644.75
2023-03-28T18:13:45.085Z,96644.09
2023-03-28T18:16:17.949Z,96638.22
2023-03-28T18:18:46.757Z,96631.25
2023-03-28T18:21:15.061Z,96635.72
2023-03-28T18:23:44.296Z,96625.97
2023-03-28T18:26:13.061Z,96635.44
2023-03-28T18:28:41.098Z,96647.75
2023-03-28T18:31:11.528Z,96642.06
2023-03-28T18:33:40.388Z,96639.13
2023-03-28T18:36:09.378Z,96646.25
2023-03-28T18:38:38.297Z,96639.97
2023-03-28T18:41:09.177Z,96632.34
2023-03-28T18:43:37.402Z,96636.00
2023-03-28T18:46:07.789Z,96624.56
2023-03-28T18:48:36.801Z,96633.31
2023-03-28T18:51:06.402Z,96622.56
2023-03-28T18:53:35.515Z,96620.53
2023-03-28T18:56:03.477Z,96622.16
2023-03-28T18:58:33.227Z,96620.41
2023-03-28T19:01:03.734Z,96625.66
2023-03-28T19:03:38.470Z,96613.34
2023-03-28T19:06:08.483Z,96627.66
2023-03-28T19:08:36.396Z,96618.28
2023-03-28T19:11:09.118Z,96617.19
2023-03-28T19:13:38.714Z,96617.59
2023-03-28T19:16:08.908Z,96617.41
2023-03-28T19:18:38.494Z,96610.84
2023-03-28T19:21:07.257Z,96620.66
2023-03-28T19:23:36.835Z,96612.22
2023-03-28T19:26:05.706Z,96612.22
2023-03-28T19:28:33.741Z,96615.66
2023-03-28T19:31:06.384Z,96616.56
2023-03-28T19:33:35.294Z,96603.09
2023-03-28T19:36:03.498Z,96602.50
2023-03-28T19:38:34.872Z,96606.97
2023-03-28T19:41:07.129Z,96599.88
2023-03-28T19:43:37.225Z,96598.41
2023-03-28T19:46:09.317Z,96592.59
2023-03-28T19:48:37.625Z,96595.09
2023-03-28T19:51:05.835Z,96585.53
2023-03-28T19:53:33.816Z,96580.88
2023-03-28T19:56:01.921Z,96588.97
2023-03-28T19:58:31.212Z,96585.78
2023-03-28T20:00:59.336Z,96574.16
2023-03-28T20:03:28.689Z,96568.91
2023-03-28T20:05:56.508Z,96573.56
2023-03-28T20:08:24.372Z,96566.63
2023-03-28T20:10:53.685Z,96568.09
2023-03-28T20:13:21.657Z,96575.75
2023-03-28T20:15:49.607Z,96566.84
2023-03-28T20:18:20.524Z,96569.34
2023-03-28T20:20:54.585Z,96568.44
2023-03-28T20:23:24.834Z,96562.03
2023-03-28T20:25:54.529Z,96563.78
2023-03-28T20:28:24.826Z,96559.66
2023-03-28T20:30:54.581Z,96559.75
2023-03-28T20:33:22.781Z,96551.56
2023-03-28T20:35:57.209Z,96561.16
2023-03-28T20:38:25.792Z,96565.03
2023-03-28T20:40:53.765Z,96562.72
2023-03-28T20:43:24.115Z,96557.03
2023-03-28T20:45:54.299Z,96557.94
2023-03-28T20:48:26.015Z,96549.28
2023-03-28T20:50:55.403Z,96548.59
2023-03-28T20:53:23.590Z,96541.31
2023-03-28T20:56:01.911Z,96534.22
2023-03-28T20:58:31.636Z,96530.44
2023-03-28T21:01:02.081Z,96526.00
2023-03-28T21:03:48.976Z,96519.38
2023-03-28T21:06:20.460Z,96516.88
2023-03-28T21:08:50.910Z,96518.25
2023-03-28T21:11:21.308Z,96522.13
2023-03-28T21:13:49.272Z,96510.59
2023-03-28T21:16:18.288Z,96517.91
2023-03-28T21:18:47.005Z,96503.41
2023-03-28T21:21:18.686Z,96500.66
2023-03-28T21:23:47.746Z,96496.69
2023-03-28T21:26:18.136Z,96501.56
2023-03-28T21:28:46.828Z,96496.09
2023-03-28T21:31:17.326Z,96505.47
2023-03-28T21:33:45.745Z,96497.84
2023-03-28T21:36:16.844Z,96503.97
2023-03-28T21:38:47.094Z,96490.19
2023-03-28T21:41:15.298Z,96503.75
2023-03-28T21:43:43.727Z,96499.09
2023-03-28T21:46:13.556Z,96486.75
2023-03-28T21:48:44.598Z,96491.31
2023-03-28T21:51:12.509Z,96488.13
2023-03-28T21:53:42.310Z,96488.56
2023-03-28T21:56:14.300Z,96492.22
2023-03-28T21:58:42.379Z,96480.13
2023-03-28T22:01:13.838Z,96478.31
2023-03-28T22:03:41.986Z,96484.22
2023-03-28T22:06:10.991Z,96462.53
2023-03-28T22:08:40.520Z,96466.88
2023-03-28T22:11:15.109Z,96473.28
2023-03-28T22:13:45.214Z,96482.28
2023-03-28T22:16:14.200Z,96469.59
2023-03-28T22:18:49.938Z,96481.69
2023-03-28T22:21:18.223Z,96500.16
2023-03-28T22:23:47.572Z,96501.09
2023-03-28T22:26:17.916Z,96502.75
2023-03-28T22:28:46.131Z,96496.56
2023-03-28T22:31:16.833Z,96482.97
2023-03-28T22:33:44.923Z,96494.38
2023-03-28T22:36:13.501Z,96489.00
2023-03-28T22:38:41.789Z,96491.16
2023-03-28T22:41:09.670Z,96497.78
2023-03-28T22:43:42.719Z,96486.22
2023-03-28T22:46:12.694Z,96493.00
2023-03-28T22:48:42.026Z,96496.09
2023-03-28T22:51:11.907Z,96497.09
2023-03-28T22:53:41.114Z,96502.59
2023-03-28T22:56:09.869Z,96506.81
2023-03-28T22:58:39.125Z,96507.03
2023-03-28T23:01:07.747Z,96496.59
2023-03-28T23:03:35.602Z,96510.53
2023-03-28T23:06:06.096Z,96507.31
2023-03-28T23:08:34.111Z,96507.69
2023-03-28T23:11:02.176Z,96518.75
2023-03-28T23:13:30.185Z,96510.09
2023-03-28T23:15:59.855Z,96532.28
2023-03-28T23:18:27.778Z,96532.75
2023-03-28T23:20:55.595Z,96533.88
2023-03-28T23:23:24.401Z,96525.19
2023-03-28T23:25:52.303Z,96526.00
2023-03-28T23:28:20.437Z,96523.09
2023-03-28T23:30:48.296Z,96512.34
2023-03-28T23:33:18.373Z,96511.34
2023-03-28T23:35:48.313Z,96518.97
2023-03-28T23:38:17.667Z,96507.84
2023-03-28T23:40:46.647Z,96507.94
2023-03-28T23:43:14.724Z,96510.94
2023-03-28T23:45:43.838Z,96506.00
2023-03-28T23:48:11.742Z,96508.50
2023-03-28T23:50:41.142Z,96504.38
2023-03-28T23:53:09.400Z,96495.59
2023-03-28T23:55:37.380Z,96488.41
2023-03-28T23:58:05.241Z,96490.41
